sensor_id;sensor_type;location;lat;lon;timestamp;temperature;humidity
12847;DHT22;6492;48.128;8.320;2023-10-08T00:01:24;12.80;1.00
12847;DHT22;6492;48.128;8.320;2023-10-08T00:05:26;12.70;1.00
12847;DHT22;6492;48.128;8.320;2023-10-08T00:09:30;12.70;1.10
12847;DHT22;6492;48.128;8.320;2023-10-08T00:13:43;13.00;1.00
12847;DHT22;6492;48.128;8.320;2023-10-08T00:17:47;12.80;1.00
12847;DHT22;6492;48.128;8.320;2023-10-08T01:12:10;12.70;1.20
12847;DHT22;6492;48.128;8.320;2023-10-08T01:16:18;12.70;1.60
12847;DHT22;6492;48.128;8.320;2023-10-08T01:20:23;13.60;2.40
12847;DHT22;6492;48.128;8.320;2023-10-08T01:59:56;12.90;1.40
12847;DHT22;6492;48.128;8.320;2023-10-08T02:04:59;12.90;1.80
12847;DHT22;6492;48.128;8.320;2023-10-08T04:25:40;11.60;5.20
12847;DHT22;6492;48.128;8.320;2023-10-08T05:30:19;12.30;3.40
12847;DHT22;6492;48.128;8.320;2023-10-08T05:35:13;12.30;2.90
12847;DHT22;6492;48.128;8.320;2023-10-08T05:39:50;12.50;2.00
12847;DHT22;6492;48.128;8.320;2023-10-08T06:05:06;12.40;1.00
12847;DHT22;6492;48.128;8.320;2023-10-08T06:10:07;13.20;1.10
12847;DHT22;6492;48.128;8.320;2023-10-08T06:15:26;13.10;1.20
12847;DHT22;6492;48.128;8.320;2023-10-08T06:39:45;13.60;1.00
12847;DHT22;6492;48.128;8.320;2023-10-08T06:44:20;13.80;1.30
12847;DHT22;6492;48.128;8.320;2023-10-08T07:02:59;14.90;1.00
12847;DHT22;6492;48.128;8.320;2023-10-08T07:41:40;17.70;1.00
12847;DHT22;6492;48.128;8.320;2023-10-08T07:45:42;18.00;1.00
12847;DHT22;6492;48.128;8.320;2023-10-08T07:49:49;18.50;1.00
12847;DHT22;6492;48.128;8.320;2023-10-08T07:53:52;18.80;1.00
12847;DHT22;6492;48.128;8.320;2023-10-08T07:58:07;19.20;1.00
12847;DHT22;6492;48.128;8.320;2023-10-08T08:02:10;19.50;1.00
12847;DHT22;6492;48.128;8.320;2023-10-08T08:06:12;19.80;1.00
12847;DHT22;6492;48.128;8.320;2023-10-08T08:10:14;19.90;1.00
12847;DHT22;6492;48.128;8.320;2023-10-08T08:14:20;20.00;1.00
12847;DHT22;6492;48.128;8.320;2023-10-08T08:18:27;20.10;1.00
12847;DHT22;6492;48.128;8.320;2023-10-08T08:22:33;20.10;1.00
12847;DHT22;6492;48.128;8.320;2023-10-08T08:31:40;20.00;1.00
12847;DHT22;6492;48.128;8.320;2023-10-08T08:35:58;19.90;1.00
12847;DHT22;6492;48.128;8.320;2023-10-08T08:40:01;19.80;1.00
12847;DHT22;6492;48.128;8.320;2023-10-08T08:44:06;19.90;1.00
12847;DHT22;6492;48.128;8.320;2023-10-08T08:48:10;20.20;1.00
12847;DHT22;6492;48.128;8.320;2023-10-08T08:52:13;20.60;1.00
12847;DHT22;6492;48.128;8.320;2023-10-08T08:56:16;21.00;1.00
12847;DHT22;6492;48.128;8.320;2023-10-08T09:00:18;21.40;1.00
12847;DHT22;6492;48.128;8.320;2023-10-08T09:04:29;21.60;1.00
12847;DHT22;6492;48.128;8.320;2023-10-08T09:08:34;21.70;1.00
12847;DHT22;6492;48.128;8.320;2023-10-08T09:12:37;21.70;1.00
12847;DHT22;6492;48.128;8.320;2023-10-08T09:16:39;21.70;1.00
12847;DHT22;6492;48.128;8.320;2023-10-08T09:20:42;21.70;1.00
12847;DHT22;6492;48.128;8.320;2023-10-08T09:24:44;21.80;1.00
12847;DHT22;6492;48.128;8.320;2023-10-08T09:28:48;22.10;1.00
12847;DHT22;6492;48.128;8.320;2023-10-08T09:32:53;22.40;1.00
12847;DHT22;6492;48.128;8.320;2023-10-08T09:36:58;22.70;1.00
12847;DHT22;6492;48.128;8.320;2023-10-08T09:41:01;23.30;1.00
12847;DHT22;6492;48.128;8.320;2023-10-08T09:45:04;23.80;1.00
12847;DHT22;6492;48.128;8.320;2023-10-08T09:49:09;24.40;1.00
12847;DHT22;6492;48.128;8.320;2023-10-08T09:53:14;24.90;1.00
12847;DHT22;6492;48.128;8.320;2023-10-08T09:57:18;25.30;1.00
12847;DHT22;6492;48.128;8.320;2023-10-08T10:01:20;25.40;1.00
12847;DHT22;6492;48.128;8.320;2023-10-08T10:05:23;25.50;1.00
12847;DHT22;6492;48.128;8.320;2023-10-08T10:09:31;25.60;1.00
12847;DHT22;6492;48.128;8.320;2023-10-08T10:13:42;25.50;1.00
12847;DHT22;6492;48.128;8.320;2023-10-08T10:17:47;25.20;1.00
12847;DHT22;6492;48.128;8.320;2023-10-08T10:21:49;25.20;1.00
12847;DHT22;6492;48.128;8.320;2023-10-08T10:25:57;25.10;1.00
12847;DHT22;6492;48.128;8.320;2023-10-08T10:30:05;25.10;1.00
12847;DHT22;6492;48.128;8.320;2023-10-08T10:34:09;24.80;1.00
12847;DHT22;6492;48.128;8.320;2023-10-08T10:38:11;24.70;1.00
12847;DHT22;6492;48.128;8.320;2023-10-08T10:42:15;24.60;1.00
12847;DHT22;6492;48.128;8.320;2023-10-08T10:46:21;24.50;1.00
12847;DHT22;6492;48.128;8.320;2023-10-08T10:50:31;24.20;1.00
12847;DHT22;6492;48.128;8.320;2023-10-08T10:54:33;23.80;1.00
12847;DHT22;6492;48.128;8.320;2023-10-08T10:58:42;23.50;1.00
12847;DHT22;6492;48.128;8.320;2023-10-08T11:02:43;23.50;1.00
12847;DHT22;6492;48.128;8.320;2023-10-08T11:06:50;23.90;1.00
12847;DHT22;6492;48.128;8.320;2023-10-08T11:10:57;24.70;1.00
12847;DHT22;6492;48.128;8.320;2023-10-08T11:15:00;25.30;1.00
12847;DHT22;6492;48.128;8.320;2023-10-08T11:19:08;25.80;1.00
12847;DHT22;6492;48.128;8.320;2023-10-08T11:23:10;26.30;1.00
12847;DHT22;6492;48.128;8.320;2023-10-08T11:27:22;26.60;1.00
12847;DHT22;6492;48.128;8.320;2023-10-08T11:31:31;26.20;1.00
12847;DHT22;6492;48.128;8.320;2023-10-08T11:35:34;26.30;1.00
12847;DHT22;6492;48.128;8.320;2023-10-08T11:39:39;25.80;1.00
12847;DHT22;6492;48.128;8.320;2023-10-08T11:43:47;25.60;1.00
12847;DHT22;6492;48.128;8.320;2023-10-08T11:47:50;25.70;1.00
12847;DHT22;6492;48.128;8.320;2023-10-08T11:51:56;26.00;1.00
12847;DHT22;6492;48.128;8.320;2023-10-08T11:55:57;26.10;1.00
12847;DHT22;6492;48.128;8.320;2023-10-08T12:00:00;26.30;1.00
12847;DHT22;6492;48.128;8.320;2023-10-08T12:04:19;26.20;1.00
12847;DHT22;6492;48.128;8.320;2023-10-08T12:08:24;26.20;1.00
12847;DHT22;6492;48.128;8.320;2023-10-08T12:12:28;26.60;1.00
12847;DHT22;6492;48.128;8.320;2023-10-08T12:16:32;27.10;1.00
12847;DHT22;6492;48.128;8.320;2023-10-08T12:20:38;27.50;1.00
12847;DHT22;6492;48.128;8.320;2023-10-08T12:24:40;27.40;1.00
12847;DHT22;6492;48.128;8.320;2023-10-08T12:28:43;27.20;1.00
12847;DHT22;6492;48.128;8.320;2023-10-08T12:32:46;27.30;1.00
12847;DHT22;6492;48.128;8.320;2023-10-08T12:36:49;27.30;1.00
12847;DHT22;6492;48.128;8.320;2023-10-08T12:40:51;27.40;1.00
12847;DHT22;6492;48.128;8.320;2023-10-08T12:44:54;26.80;1.00
12847;DHT22;6492;48.128;8.320;2023-10-08T12:48:57;26.10;1.00
12847;DHT22;6492;48.128;8.320;2023-10-08T12:53:03;25.80;1.00
12847;DHT22;6492;48.128;8.320;2023-10-08T12:57:05;26.10;1.00
12847;DHT22;6492;48.128;8.320;2023-10-08T13:01:10;26.50;1.00
12847;DHT22;6492;48.128;8.320;2023-10-08T13:05:16;26.40;1.00
12847;DHT22;6492;48.128;8.320;2023-10-08T13:09:23;26.60;1.00
12847;DHT22;6492;48.128;8.320;2023-10-08T13:13:25;26.90;1.00
12847;DHT22;6492;48.128;8.320;2023-10-08T13:17:27;27.30;1.00
12847;DHT22;6492;48.128;8.320;2023-10-08T13:21:32;27.50;1.00
12847;DHT22;6492;48.128;8.320;2023-10-08T13:25:35;27.70;1.00
12847;DHT22;6492;48.128;8.320;2023-10-08T13:29:39;27.90;1.00
12847;DHT22;6492;48.128;8.320;2023-10-08T13:33:43;27.80;1.00
12847;DHT22;6492;48.128;8.320;2023-10-08T13:37:49;27.50;1.00
12847;DHT22;6492;48.128;8.320;2023-10-08T13:41:52;27.10;1.00
12847;DHT22;6492;48.128;8.320;2023-10-08T13:45:57;27.00;1.00
12847;DHT22;6492;48.128;8.320;2023-10-08T13:49:59;27.00;1.00
12847;DHT22;6492;48.128;8.320;2023-10-08T13:54:03;27.20;1.00
12847;DHT22;6492;48.128;8.320;2023-10-08T13:58:09;27.30;1.00
12847;DHT22;6492;48.128;8.320;2023-10-08T14:02:14;27.70;1.00
12847;DHT22;6492;48.128;8.320;2023-10-08T14:06:19;27.80;1.00
12847;DHT22;6492;48.128;8.320;2023-10-08T14:10:23;27.70;1.00
12847;DHT22;6492;48.128;8.320;2023-10-08T14:14:31;27.50;1.00
12847;DHT22;6492;48.128;8.320;2023-10-08T14:18:34;27.40;1.00
12847;DHT22;6492;48.128;8.320;2023-10-08T14:22:41;27.30;1.00
12847;DHT22;6492;48.128;8.320;2023-10-08T14:26:44;27.30;1.00
12847;DHT22;6492;48.128;8.320;2023-10-08T14:30:53;27.20;1.00
12847;DHT22;6492;48.128;8.320;2023-10-08T14:34:57;26.80;1.00
12847;DHT22;6492;48.128;8.320;2023-10-08T14:39:13;26.60;1.00
12847;DHT22;6492;48.128;8.320;2023-10-08T14:43:32;26.50;1.00
12847;DHT22;6492;48.128;8.320;2023-10-08T14:47:36;26.40;1.00
12847;DHT22;6492;48.128;8.320;2023-10-08T14:51:38;26.60;1.00
12847;DHT22;6492;48.128;8.320;2023-10-08T14:55:41;26.60;1.00
12847;DHT22;6492;48.128;8.320;2023-10-08T14:59:43;26.50;1.00
12847;DHT22;6492;48.128;8.320;2023-10-08T15:03:46;26.30;1.00
12847;DHT22;6492;48.128;8.320;2023-10-08T15:07:48;26.00;1.00
12847;DHT22;6492;48.128;8.320;2023-10-08T15:11:51;25.80;1.00
12847;DHT22;6492;48.128;8.320;2023-10-08T15:15:53;25.40;1.00
12847;DHT22;6492;48.128;8.320;2023-10-08T15:19:56;25.00;1.00
12847;DHT22;6492;48.128;8.320;2023-10-08T15:24:00;24.70;1.00
12847;DHT22;6492;48.128;8.320;2023-10-08T15:28:05;24.60;1.00
12847;DHT22;6492;48.128;8.320;2023-10-08T15:32:08;24.40;1.00
12847;DHT22;6492;48.128;8.320;2023-10-08T15:36:12;24.30;1.00
12847;DHT22;6492;48.128;8.320;2023-10-08T15:40:14;24.20;1.00
12847;DHT22;6492;48.128;8.320;2023-10-08T15:44:19;24.00;1.00
12847;DHT22;6492;48.128;8.320;2023-10-08T15:48:28;23.80;1.00
12847;DHT22;6492;48.128;8.320;2023-10-08T15:52:33;23.50;1.00
12847;DHT22;6492;48.128;8.320;2023-10-08T15:56:34;23.10;1.00
12847;DHT22;6492;48.128;8.320;2023-10-08T16:00:36;22.80;1.00
12847;DHT22;6492;48.128;8.320;2023-10-08T16:04:38;22.50;1.00
12847;DHT22;6492;48.128;8.320;2023-10-08T16:08:42;22.20;1.00
12847;DHT22;6492;48.128;8.320;2023-10-08T16:12:44;21.80;1.00
12847;DHT22;6492;48.128;8.320;2023-10-08T16:16:46;21.50;1.00
12847;DHT22;6492;48.128;8.320;2023-10-08T16:20:48;21.20;1.00
12847;DHT22;6492;48.128;8.320;2023-10-08T16:24:52;20.80;1.00
12847;DHT22;6492;48.128;8.320;2023-10-08T16:28:53;20.40;1.00
12847;DHT22;6492;48.128;8.320;2023-10-08T16:32:57;19.90;1.00
12847;DHT22;6492;48.128;8.320;2023-10-08T16:36:59;19.50;1.00
12847;DHT22;6492;48.128;8.320;2023-10-08T16:41:03;19.00;1.00
12847;DHT22;6492;48.128;8.320;2023-10-08T16:45:06;19.90;1.00
12847;DHT22;6492;48.128;8.320;2023-10-08T16:49:18;18.30;1.00
12847;DHT22;6492;48.128;8.320;2023-10-08T16:57:28;17.80;1.00
12847;DHT22;6492;48.128;8.320;2023-10-08T17:10:09;17.00;1.00
12847;DHT22;6492;48.128;8.320;2023-10-08T17:18:29;16.50;1.00
12847;DHT22;6492;48.128;8.320;2023-10-08T17:22:45;16.40;1.00
12847;DHT22;6492;48.128;8.320;2023-10-08T17:26:47;16.20;1.00
12847;DHT22;6492;48.128;8.320;2023-10-08T17:30:56;16.00;1.00
12847;DHT22;6492;48.128;8.320;2023-10-08T17:35:21;15.80;1.00
12847;DHT22;6492;48.128;8.320;2023-10-08T17:44:01;15.50;1.00
12847;DHT22;6492;48.128;8.320;2023-10-08T17:48:09;15.40;1.00
12847;DHT22;6492;48.128;8.320;2023-10-08T17:52:20;15.10;1.00
12847;DHT22;6492;48.128;8.320;2023-10-08T17:56:49;15.00;1.40
12847;DHT22;6492;48.128;8.320;2023-10-08T18:01:25;14.80;1.00
12847;DHT22;6492;48.128;8.320;2023-10-08T18:05:47;14.90;2.30
12847;DHT22;6492;48.128;8.320;2023-10-08T18:15:00;14.90;1.10
12847;DHT22;6492;48.128;8.320;2023-10-08T18:19:14;14.80;1.20
12847;DHT22;6492;48.128;8.320;2023-10-08T18:23:49;14.80;1.20
12847;DHT22;6492;48.128;8.320;2023-10-08T18:32:59;14.70;1.00
12847;DHT22;6492;48.128;8.320;2023-10-08T18:37:51;14.60;1.00
12847;DHT22;6492;48.128;8.320;2023-10-08T18:52:15;14.30;1.00
12847;DHT22;6492;48.128;8.320;2023-10-08T18:57:06;14.30;2.20
12847;DHT22;6492;48.128;8.320;2023-10-08T19:21:54;14.00;1.00
12847;DHT22;6492;48.128;8.320;2023-10-08T19:26:21;13.90;2.30
12847;DHT22;6492;48.128;8.320;2023-10-08T19:30:35;13.80;2.20
12847;DHT22;6492;48.128;8.320;2023-10-08T19:35:30;13.80;1.80
12847;DHT22;6492;48.128;8.320;2023-10-08T19:43:48;13.60;2.70
12847;DHT22;6492;48.128;8.320;2023-10-08T19:52:01;13.50;2.40
12847;DHT22;6492;48.128;8.320;2023-10-08T20:06:24;13.40;2.30
12847;DHT22;6492;48.128;8.320;2023-10-08T20:10:28;13.50;3.40
12847;DHT22;6492;48.128;8.320;2023-10-08T20:14:56;13.40;3.10
12847;DHT22;6492;48.128;8.320;2023-10-08T20:19:30;13.30;1.90
12847;DHT22;6492;48.128;8.320;2023-10-08T20:24:05;13.40;2.20
12847;DHT22;6492;48.128;8.320;2023-10-08T20:33:08;13.30;1.30
12847;DHT22;6492;48.128;8.320;2023-10-08T20:37:45;13.10;1.30
12847;DHT22;6492;48.128;8.320;2023-10-08T20:42:14;13.90;1.60
12847;DHT22;6492;48.128;8.320;2023-10-08T20:46:24;13.10;1.70
12847;DHT22;6492;48.128;8.320;2023-10-08T20:50:34;13.10;1.30
12847;DHT22;6492;48.128;8.320;2023-10-08T20:54:41;13.00;1.00
12847;DHT22;6492;48.128;8.320;2023-10-08T20:58:46;13.00;1.30
12847;DHT22;6492;48.128;8.320;2023-10-08T21:02:50;13.00;1.10
12847;DHT22;6492;48.128;8.320;2023-10-08T21:07:00;13.00;1.40
12847;DHT22;6492;48.128;8.320;2023-10-08T21:11:15;12.80;1.00
12847;DHT22;6492;48.128;8.320;2023-10-08T21:24:56;12.70;1.00
12847;DHT22;6492;48.128;8.320;2023-10-08T21:29:18;12.80;1.00
12847;DHT22;6492;48.128;8.320;2023-10-08T21:33:40;12.90;1.00
12847;DHT22;6492;48.128;8.320;2023-10-08T21:38:07;13.10;1.00
12847;DHT22;6492;48.128;8.320;2023-10-08T21:57:58;13.10;1.00
12847;DHT22;6492;48.128;8.320;2023-10-08T22:02:11;12.90;2.00
12847;DHT22;6492;48.128;8.320;2023-10-08T22:06:15;12.80;1.00
12847;DHT22;6492;48.128;8.320;2023-10-08T22:10:54;12.80;1.30
12847;DHT22;6492;48.128;8.320;2023-10-08T22:15:42;12.90;1.60
12847;DHT22;6492;48.128;8.320;2023-10-08T22:20:09;12.40;1.00
12847;DHT22;6492;48.128;8.320;2023-10-08T22:24:39;13.20;1.40
12847;DHT22;6492;48.128;8.320;2023-10-08T22:28:56;13.30;1.60
12847;DHT22;6492;48.128;8.320;2023-10-08T22:33:25;13.30;1.60
12847;DHT22;6492;48.128;8.320;2023-10-08T22:37:57;13.30;1.70
12847;DHT22;6492;48.128;8.320;2023-10-08T22:42:43;13.40;1.00
12847;DHT22;6492;48.128;8.320;2023-10-08T22:47:13;13.30;1.20
12847;DHT22;6492;48.128;8.320;2023-10-08T22:51:37;13.40;1.40
12847;DHT22;6492;48.128;8.320;2023-10-08T22:55:54;13.40;1.40
12847;DHT22;6492;48.128;8.320;2023-10-08T23:00:18;13.40;2.20
12847;DHT22;6492;48.128;8.320;2023-10-08T23:04:28;13.50;2.10
12847;DHT22;6492;48.128;8.320;2023-10-08T23:09:06;13.50;2.40
12847;DHT22;6492;48.128;8.320;2023-10-08T23:13:20;13.50;2.60
12847;DHT22;6492;48.128;8.320;2023-10-08T23:17:42;13.40;2.70
12847;DHT22;6492;48.128;8.320;2023-10-08T23:21:49;13.50;2.90
12847;DHT22;6492;48.128;8.320;2023-10-08T23:26:23;13.60;3.00
12847;DHT22;6492;48.128;8.320;2023-10-08T23:30:51;13.90;1.30
12847;DHT22;6492;48.128;8.320;2023-10-08T23:35:01;14.30;1.00
12847;DHT22;6492;48.128;8.320;2023-10-08T23:39:37;14.40;1.00
12847;DHT22;6492;48.128;8.320;2023-10-08T23:44:27;14.40;1.00
12847;DHT22;6492;48.128;8.320;2023-10-08T23:53:23;14.20;1.00
12847;DHT22;6492;48.128;8.320;2023-10-08T23:57:52;14.20;1.00
